createdAt,value
2019-05-09T00:00:04.159Z,73.30
2019-05-09T00:02:38.656Z,73.70
2019-05-09T00:05:05.505Z,73.90
2019-05-09T00:07:33.642Z,73.60
2019-05-09T00:09:59.496Z,73.70
2019-05-09T00:12:25.520Z,73.50
2019-05-09T00:14:53.828Z,73.70
2019-05-09T00:17:19.667Z,73.70
2019-05-09T00:19:45.751Z,74.00
2019-05-09T00:22:13.730Z,73.90
2019-05-09T00:24:39.699Z,73.70
2019-05-09T00:27:05.721Z,74.00
2019-05-09T00:29:53.213Z,73.90
2019-05-09T00:32:30.120Z,73.70
2019-05-09T00:35:04.126Z,73.30
2019-05-09T00:37:48.775Z,73.60
2019-05-09T00:40:14.844Z,73.00
2019-05-09T00:42:41.014Z,71.90
2019-05-09T00:45:08.946Z,71.70
2019-05-09T00:47:35.059Z,72.30
2019-05-09T00:50:01.297Z,71.10
2019-05-09T00:52:27.300Z,72.50
2019-05-09T00:54:57.083Z,72.80
2019-05-09T00:57:38.402Z,72.90
2019-05-09T01:00:06.560Z,72.40
2019-05-09T01:02:34.012Z,70.50
2019-05-09T01:05:04.189Z,71.50
2019-05-09T01:07:30.904Z,71.60
2019-05-09T01:09:56.924Z,72.40
2019-05-09T01:12:23.586Z,72.50
2019-05-09T01:14:50.187Z,72.90
2019-05-09T01:17:18.494Z,73.00
2019-05-09T01:19:47.053Z,72.70
2019-05-09T01:22:23.633Z,71.20
2019-05-09T01:24:50.934Z,72.00
2019-05-09T01:27:17.307Z,71.20
2019-05-09T01:29:49.479Z,72.10
2019-05-09T01:32:34.409Z,72.00
2019-05-09T01:35:03.860Z,71.70
2019-05-09T01:37:34.028Z,71.60
2019-05-09T01:40:08.409Z,70.40
2019-05-09T01:42:36.725Z,71.00
2019-05-09T01:45:04.946Z,70.80
2019-05-09T01:47:30.959Z,70.80
2019-05-09T01:49:57.163Z,71.20
2019-05-09T01:52:23.261Z,71.20
2019-05-09T01:54:49.316Z,71.50
2019-05-09T01:57:15.391Z,71.60
2019-05-09T01:59:41.403Z,72.10
2019-05-09T02:02:08.921Z,71.30
2019-05-09T02:04:35.184Z,71.30
2019-05-09T02:07:04.194Z,71.40
2019-05-09T02:09:30.786Z,71.30
2019-05-09T02:11:56.927Z,70.90
2019-05-09T02:14:31.289Z,70.90
2019-05-09T02:17:00.577Z,71.10
2019-05-09T02:19:33.166Z,71.20
2019-05-09T02:21:59.262Z,71.10
2019-05-09T02:24:25.313Z,71.10
2019-05-09T02:26:53.327Z,71.00
2019-05-09T02:29:19.627Z,71.00
2019-05-09T02:31:47.647Z,70.80
2019-05-09T02:34:18.514Z,70.80
2019-05-09T02:36:49.613Z,70.60
2019-05-09T02:39:20.031Z,70.60
2019-05-09T02:42:04.917Z,70.20
2019-05-09T02:44:21.378Z,70.60
2019-05-09T02:46:49.719Z,70.10
2019-05-09T02:49:15.734Z,70.00
2019-05-09T02:51:41.864Z,70.00
2019-05-09T02:54:09.767Z,69.90
2019-05-09T02:56:38.466Z,70.10
2019-05-09T02:59:09.670Z,70.00
2019-05-09T03:01:49.477Z,69.80
2019-05-09T03:04:18.679Z,70.10
2019-05-09T03:06:44.404Z,70.10
2019-05-09T03:09:10.698Z,69.90
2019-05-09T03:11:38.734Z,69.10
2019-05-09T03:14:04.665Z,69.90
2019-05-09T03:16:31.023Z,69.50
2019-05-09T03:18:58.592Z,68.60
2019-05-09T03:21:29.879Z,69.30
2019-05-09T03:23:54.595Z,69.40
2019-05-09T03:26:25.091Z,69.60
2019-05-09T03:28:59.126Z,69.10
2019-05-09T03:31:29.805Z,69.40
2019-05-09T03:33:59.497Z,69.00
2019-05-09T03:36:24.503Z,69.10
2019-05-09T03:38:50.515Z,68.30
2019-05-09T03:41:17.711Z,68.30
2019-05-09T03:43:44.037Z,68.70
2019-05-09T03:46:11.944Z,68.80
2019-05-09T03:48:43.291Z,69.00
2019-05-09T03:51:09.299Z,69.00
2019-05-09T03:53:35.309Z,68.90
2019-05-09T03:56:03.243Z,68.70
2019-05-09T03:58:29.255Z,68.30
2019-05-09T04:00:55.277Z,68.30
2019-05-09T04:03:21.497Z,68.60
2019-05-09T04:05:56.701Z,69.40
2019-05-09T04:08:17.931Z,68.50
2019-05-09T04:10:47.004Z,67.90
2019-05-09T04:13:13.419Z,68.20
2019-05-09T04:15:39.439Z,68.40
2019-05-09T04:18:05.549Z,68.30
2019-05-09T04:20:31.562Z,67.80
2019-05-09T04:22:59.461Z,67.70
2019-05-09T04:25:27.493Z,67.60
2019-05-09T04:27:53.672Z,67.40
2019-05-09T04:30:19.687Z,67.50
2019-05-09T04:32:47.659Z,67.90
2019-05-09T04:35:13.655Z,67.60
2019-05-09T04:37:39.668Z,67.50
2019-05-09T04:40:08.082Z,67.20
2019-05-09T04:42:34.983Z,67.10
2019-05-09T04:45:07.089Z,66.70
2019-05-09T04:47:41.374Z,66.10
2019-05-09T04:50:04.304Z,66.60
2019-05-09T04:52:30.526Z,66.00
2019-05-09T04:55:07.747Z,65.20
2019-05-09T04:57:42.280Z,64.30
2019-05-09T05:00:24.835Z,64.40
2019-05-09T05:02:52.070Z,64.60
2019-05-09T05:05:18.190Z,64.60
2019-05-09T05:07:44.315Z,64.10
2019-05-09T05:10:12.641Z,64.50
2019-05-09T05:12:39.797Z,64.40
2019-05-09T05:15:07.998Z,64.30
2019-05-09T05:17:33.952Z,64.10
2019-05-09T05:20:00.980Z,64.50
2019-05-09T05:22:29.570Z,64.80
2019-05-09T05:25:00.098Z,64.60
2019-05-09T05:27:27.855Z,63.80
2019-05-09T05:29:54.239Z,63.90
2019-05-09T05:32:31.064Z,62.80
2019-05-09T05:34:58.999Z,63.30
2019-05-09T05:37:25.335Z,63.50
2019-05-09T05:39:51.347Z,62.50
2019-05-09T05:42:17.675Z,62.30
2019-05-09T05:44:43.903Z,63.40
2019-05-09T05:47:11.834Z,63.70
2019-05-09T05:49:38.525Z,64.30
2019-05-09T05:52:04.747Z,64.20
2019-05-09T05:54:30.774Z,64.30
2019-05-09T05:56:57.819Z,64.20
2019-05-09T05:59:24.103Z,63.30
2019-05-09T06:01:50.129Z,63.50
2019-05-09T06:04:18.477Z,62.60
2019-05-09T06:06:44.163Z,62.60
2019-05-09T06:09:10.221Z,62.60
2019-05-09T06:11:38.440Z,62.10
2019-05-09T06:14:10.954Z,62.50
2019-05-09T06:16:32.558Z,60.90
2019-05-09T06:18:59.900Z,61.00
2019-05-09T06:21:28.100Z,61.40
2019-05-09T06:23:53.833Z,61.90
2019-05-09T06:26:19.868Z,62.20
2019-05-09T06:28:48.004Z,61.10
2019-05-09T06:31:13.850Z,60.50
2019-05-09T06:33:46.095Z,61.80
2019-05-09T06:36:08.461Z,61.40
2019-05-09T06:38:34.855Z,60.10
2019-05-09T06:41:01.015Z,61.40
2019-05-09T06:43:29.153Z,60.80
2019-05-09T06:46:01.574Z,60.70
2019-05-09T06:48:28.403Z,60.90
2019-05-09T06:50:54.565Z,60.40
2019-05-09T06:53:20.739Z,60.50
2019-05-09T06:55:47.586Z,59.50
2019-05-09T06:58:34.091Z,59.60
2019-05-09T07:01:19.879Z,59.50
2019-05-09T07:04:04.486Z,59.30
2019-05-09T07:06:48.434Z,58.90
2019-05-09T07:09:25.051Z,59.00
2019-05-09T07:11:51.089Z,58.60
2019-05-09T07:14:33.896Z,58.40
2019-05-09T07:16:58.704Z,58.70
2019-05-09T07:19:24.726Z,57.00
2019-05-09T07:22:05.479Z,57.50
2019-05-09T07:24:37.785Z,56.80
2019-05-09T07:27:11.756Z,57.60
2019-05-09T07:29:37.797Z,58.30
2019-05-09T07:32:13.891Z,58.40
2019-05-09T07:34:51.111Z,57.70
2019-05-09T07:37:18.595Z,57.00
2019-05-09T07:39:49.634Z,57.10
2019-05-09T07:42:17.943Z,57.40
2019-05-09T07:44:48.314Z,57.10
2019-05-09T07:47:11.645Z,56.30
2019-05-09T07:49:37.815Z,56.90
2019-05-09T07:52:09.418Z,57.90
2019-05-09T07:54:33.031Z,58.60
2019-05-09T07:56:59.031Z,58.00
2019-05-09T07:59:27.283Z,57.70
2019-05-09T08:01:52.994Z,57.90
2019-05-09T08:04:19.051Z,58.00
2019-05-09T08:06:45.134Z,57.00
2019-05-09T08:09:11.220Z,56.00
2019-05-09T08:11:37.705Z,55.80
2019-05-09T08:14:04.327Z,55.10
2019-05-09T08:16:30.734Z,53.10
2019-05-09T08:18:57.759Z,53.30
2019-05-09T08:21:24.255Z,53.00
2019-05-09T08:23:50.280Z,52.60
2019-05-09T08:26:18.672Z,53.00
2019-05-09T08:28:44.492Z,52.90
2019-05-09T08:31:10.560Z,53.70
2019-05-09T08:33:38.064Z,54.50
2019-05-09T08:36:04.505Z,54.70
2019-05-09T08:38:30.592Z,54.30
2019-05-09T08:41:08.774Z,54.30
2019-05-09T08:43:37.610Z,54.60
2019-05-09T08:46:03.593Z,54.70
2019-05-09T08:48:29.650Z,53.90
2019-05-09T08:50:58.350Z,51.30
2019-05-09T08:53:24.734Z,50.10
2019-05-09T08:55:51.188Z,50.80
2019-05-09T08:58:19.667Z,51.50
2019-05-09T09:00:45.444Z,49.90
2019-05-09T09:03:19.596Z,51.10
2019-05-09T09:05:45.610Z,50.50
2019-05-09T09:08:11.620Z,50.00
2019-05-09T09:10:38.692Z,49.80
2019-05-09T09:13:04.920Z,48.80
2019-05-09T09:16:02.262Z,48.40
2019-05-09T09:18:04.643Z,47.80
2019-05-09T09:20:30.944Z,47.70
2019-05-09T09:22:58.235Z,47.80
2019-05-09T09:25:24.679Z,46.70
2019-05-09T09:27:51.224Z,47.40
2019-05-09T09:30:24.116Z,46.90
2019-05-09T09:32:47.742Z,47.50
2019-05-09T09:35:13.161Z,46.70
2019-05-09T09:37:48.298Z,44.50
2019-05-09T09:40:08.626Z,45.10
2019-05-09T09:42:35.126Z,43.10
2019-05-09T09:45:01.252Z,43.20
2019-05-09T09:47:28.609Z,41.90
2019-05-09T09:49:55.160Z,41.90
2019-05-09T09:52:21.435Z,43.70
2019-05-09T09:54:48.201Z,43.50
2019-05-09T09:57:14.928Z,41.70
2019-05-09T09:59:48.381Z,43.00
2019-05-09T10:02:17.435Z,42.50
2019-05-09T10:04:54.126Z,42.00
2019-05-09T10:07:20.319Z,42.50
2019-05-09T10:09:48.004Z,41.80
2019-05-09T10:12:14.266Z,41.30
2019-05-09T10:14:42.587Z,41.30
2019-05-09T10:17:32.485Z,40.80
2019-05-09T10:20:00.771Z,40.40
2019-05-09T10:22:34.324Z,41.30
2019-05-09T10:25:00.453Z,41.00
2019-05-09T10:27:28.385Z,39.90
2019-05-09T10:29:54.616Z,39.40
2019-05-09T10:32:20.631Z,37.80
2019-05-09T10:34:48.820Z,36.70
2019-05-09T10:37:14.708Z,37.20
2019-05-09T10:39:40.743Z,37.60
2019-05-09T10:42:28.594Z,37.60
2019-05-09T10:45:08.395Z,38.30
2019-05-09T10:47:37.777Z,39.20
2019-05-09T10:50:05.667Z,40.00
2019-05-09T10:52:31.684Z,39.80
2019-05-09T10:55:04.687Z,40.30
2019-05-09T10:57:32.374Z,40.00
2019-05-09T10:59:58.655Z,35.40
2019-05-09T11:02:25.111Z,29.30
2019-05-09T11:04:51.210Z,26.40
2019-05-09T11:07:18.199Z,24.10
2019-05-09T11:09:44.465Z,21.60
2019-05-09T11:12:10.511Z,20.60
2019-05-09T11:14:37.662Z,18.90
2019-05-09T11:17:10.647Z,20.00
2019-05-09T11:19:31.993Z,20.70
2019-05-09T11:21:59.917Z,23.00
2019-05-09T11:24:41.530Z,23.40
2019-05-09T11:26:54.262Z,22.60
2019-05-09T11:29:20.281Z,24.70
2019-05-09T11:31:47.753Z,25.30
2019-05-09T11:34:14.028Z,24.10
2019-05-09T11:36:40.039Z,25.90
2019-05-09T11:39:10.620Z,26.70
2019-05-09T11:41:38.160Z,27.80
2019-05-09T11:44:03.382Z,29.00
2019-05-09T11:46:29.487Z,28.90
2019-05-09T11:48:55.556Z,28.80
2019-05-09T11:51:22.893Z,28.40
2019-05-09T11:53:49.091Z,28.40
2019-05-09T11:56:15.116Z,28.70
2019-05-09T11:58:42.069Z,27.10
2019-05-09T12:01:08.422Z,24.00
2019-05-09T12:03:34.488Z,22.90
2019-05-09T12:06:00.495Z,23.10
2019-05-09T12:08:26.556Z,25.00
2019-05-09T12:10:52.571Z,21.60
2019-05-09T12:13:18.924Z,19.40
2019-05-09T12:15:44.979Z,18.90
2019-05-09T12:18:11.790Z,17.90
2019-05-09T12:20:37.916Z,15.50
2019-05-09T12:23:04.263Z,14.50
2019-05-09T12:25:30.288Z,13.00
2019-05-09T12:27:58.485Z,12.10
2019-05-09T12:30:24.553Z,11.50
2019-05-09T12:32:54.492Z,13.60
2019-05-09T12:35:20.528Z,14.80
2019-05-09T12:37:48.385Z,18.20
2019-05-09T12:40:14.549Z,19.60
2019-05-09T12:42:40.588Z,21.30
2019-05-09T12:45:08.325Z,21.30
2019-05-09T12:47:34.613Z,19.50
2019-05-09T12:50:02.941Z,16.30
2019-05-09T12:52:29.188Z,13.80
2019-05-09T12:54:55.204Z,12.50
2019-05-09T12:57:21.225Z,13.00
2019-05-09T12:59:51.749Z,14.10
2019-05-09T13:02:17.631Z,15.10
2019-05-09T13:04:43.406Z,15.80
2019-05-09T13:07:09.891Z,17.10
2019-05-09T13:09:35.948Z,18.40
2019-05-09T13:12:02.128Z,19.20
2019-05-09T13:14:28.683Z,20.30
2019-05-09T13:16:59.207Z,20.90
2019-05-09T13:19:38.151Z,21.80
2019-05-09T13:22:04.151Z,23.50
2019-05-09T13:24:30.215Z,20.50
2019-05-09T13:26:56.327Z,19.60
2019-05-09T13:29:25.885Z,19.50
2019-05-09T13:31:51.915Z,20.60
2019-05-09T13:34:18.864Z,19.10
2019-05-09T13:36:45.266Z,20.00
2019-05-09T13:39:12.647Z,20.90
2019-05-09T13:41:38.697Z,20.90
2019-05-09T13:44:07.016Z,21.80
2019-05-09T13:46:32.729Z,21.20
2019-05-09T13:49:10.787Z,22.00
2019-05-09T13:51:26.828Z,23.20
2019-05-09T13:53:53.762Z,23.40
2019-05-09T13:56:19.961Z,23.40
2019-05-09T13:58:48.562Z,23.60
2019-05-09T14:01:22.983Z,23.80
2019-05-09T14:03:49.241Z,23.80
2019-05-09T14:06:15.439Z,24.10
2019-05-09T14:08:41.749Z,24.00
2019-05-09T14:11:08.544Z,23.90
2019-05-09T14:13:34.714Z,24.20
2019-05-09T14:16:15.580Z,24.60
2019-05-09T14:18:28.810Z,24.60
2019-05-09T14:20:54.819Z,24.70
2019-05-09T14:23:21.692Z,24.70
2019-05-09T14:25:51.333Z,25.00
2019-05-09T14:28:15.669Z,25.30
2019-05-09T14:30:41.779Z,26.00
2019-05-09T14:33:08.313Z,25.30
2019-05-09T14:35:34.514Z,24.80
2019-05-09T14:38:00.578Z,24.30
2019-05-09T14:40:28.084Z,23.50
2019-05-09T14:42:57.765Z,24.40
2019-05-09T14:45:24.103Z,23.70
2019-05-09T14:47:50.153Z,23.90
2019-05-09T14:50:18.071Z,23.90
2019-05-09T14:52:44.137Z,23.70
2019-05-09T14:55:10.398Z,23.70
2019-05-09T14:57:38.408Z,23.60
2019-05-09T15:00:07.839Z,23.60
2019-05-09T15:02:33.590Z,23.20
2019-05-09T15:04:59.606Z,21.60
2019-05-09T15:07:28.272Z,18.70
2019-05-09T15:09:56.209Z,15.20
2019-05-09T15:12:21.845Z,15.60
2019-05-09T15:14:48.070Z,13.70
2019-05-09T15:17:14.209Z,13.00
2019-05-09T15:19:55.298Z,13.10
2019-05-09T15:22:08.808Z,12.80
2019-05-09T15:24:35.012Z,12.20
2019-05-09T15:27:01.040Z,11.50
2019-05-09T15:29:29.056Z,10.80
2019-05-09T15:31:55.381Z,11.10
2019-05-09T15:34:23.410Z,12.40
2019-05-09T15:36:49.502Z,13.60
2019-05-09T15:39:18.357Z,15.70
2019-05-09T15:41:44.678Z,17.80
2019-05-09T15:44:12.715Z,19.10
2019-05-09T15:46:53.074Z,20.50
2019-05-09T15:49:19.405Z,20.40
2019-05-09T15:51:47.660Z,21.10
2019-05-09T15:54:13.471Z,21.80
2019-05-09T15:56:39.516Z,23.00
2019-05-09T15:59:05.556Z,23.10
2019-05-09T16:01:31.599Z,23.40
2019-05-09T16:03:58.110Z,24.70
2019-05-09T16:06:24.169Z,25.90
2019-05-09T16:08:50.195Z,27.10
2019-05-09T16:11:17.995Z,27.80
2019-05-09T16:13:44.223Z,28.60
2019-05-09T16:16:17.561Z,29.90
2019-05-09T16:18:48.579Z,30.80
2019-05-09T16:21:27.816Z,31.20
2019-05-09T16:24:01.562Z,30.50
2019-05-09T16:26:29.508Z,30.20
2019-05-09T16:29:05.464Z,29.80
2019-05-09T16:31:39.619Z,29.60
2019-05-09T16:34:12.283Z,30.00
2019-05-09T16:36:41.171Z,29.90
2019-05-09T16:39:11.525Z,29.70
2019-05-09T16:41:39.642Z,29.60
2019-05-09T16:44:09.470Z,30.00
2019-05-09T16:46:37.792Z,30.10
2019-05-09T16:49:05.211Z,30.00
2019-05-09T16:51:31.380Z,30.40
2019-05-09T16:53:58.393Z,31.70
2019-05-09T16:56:24.763Z,30.50
2019-05-09T16:58:50.791Z,30.20
2019-05-09T17:01:18.491Z,30.20
2019-05-09T17:03:45.464Z,30.10
2019-05-09T17:06:11.623Z,30.00
2019-05-09T17:08:38.544Z,30.60
2019-05-09T17:11:07.745Z,31.00
2019-05-09T17:13:33.990Z,30.90
2019-05-09T17:16:00.085Z,30.90
2019-05-09T17:18:28.325Z,31.30
2019-05-09T17:21:03.070Z,30.70
2019-05-09T17:23:29.567Z,30.40
2019-05-09T17:25:57.904Z,30.90
2019-05-09T17:28:24.159Z,31.00
2019-05-09T17:30:50.318Z,31.60
2019-05-09T17:33:18.235Z,31.90
2019-05-09T17:35:48.422Z,31.80
2019-05-09T17:38:14.929Z,32.70
2019-05-09T17:40:48.624Z,32.10
2019-05-09T17:43:15.027Z,32.50
2019-05-09T17:45:51.213Z,33.10
2019-05-09T17:48:18.383Z,33.40
2019-05-09T17:50:53.473Z,33.80
2019-05-09T17:53:19.507Z,34.00
2019-05-09T17:55:47.750Z,34.50
2019-05-09T17:58:26.208Z,35.20
2019-05-09T18:00:41.772Z,35.60
2019-05-09T18:03:07.791Z,36.30
2019-05-09T18:05:35.962Z,37.80
2019-05-09T18:08:03.047Z,37.70
2019-05-09T18:10:29.059Z,38.10
2019-05-09T18:12:55.196Z,40.20
2019-05-09T18:15:21.295Z,39.40
2019-05-09T18:17:47.995Z,39.50
2019-05-09T18:20:14.681Z,39.70
2019-05-09T18:22:48.070Z,40.20
2019-05-09T18:25:13.311Z,40.80
2019-05-09T18:27:40.826Z,40.90
2019-05-09T18:30:06.839Z,41.10
2019-05-09T18:32:54.777Z,41.60
2019-05-09T18:35:22.736Z,41.50
2019-05-09T18:37:48.755Z,41.90
2019-05-09T18:40:14.864Z,42.70
2019-05-09T18:42:40.884Z,42.80
2019-05-09T18:45:07.939Z,43.00
2019-05-09T18:47:34.300Z,42.80
2019-05-09T18:50:00.490Z,42.90
2019-05-09T18:52:26.523Z,43.10
2019-05-09T18:54:53.522Z,43.30
2019-05-09T18:57:19.531Z,43.40
2019-05-09T18:59:45.547Z,43.70
2019-05-09T19:02:15.999Z,44.10
2019-05-09T19:04:42.051Z,44.40
2019-05-09T19:07:21.127Z,44.10
2019-05-09T19:09:37.643Z,43.90
2019-05-09T19:12:03.684Z,43.90
2019-05-09T19:14:29.801Z,44.20
2019-05-09T19:17:00.734Z,43.00
2019-05-09T19:19:45.579Z,43.40
2019-05-09T19:22:22.166Z,43.70
2019-05-09T19:24:39.974Z,42.90
2019-05-09T19:27:06.003Z,42.80
2019-05-09T19:29:32.057Z,42.30
2019-05-09T19:31:58.359Z,42.40
2019-05-09T19:34:24.384Z,42.40
2019-05-09T19:36:50.742Z,42.70
2019-05-09T19:39:16.759Z,42.40
2019-05-09T19:41:42.777Z,42.60
2019-05-09T19:44:08.811Z,42.80
2019-05-09T19:46:34.884Z,43.00
2019-05-09T19:49:00.959Z,43.10
2019-05-09T19:51:27.059Z,43.20
2019-05-09T19:53:53.188Z,43.30
2019-05-09T19:56:19.210Z,43.10
2019-05-09T19:58:45.670Z,43.40
2019-05-09T20:01:11.787Z,43.80
2019-05-09T20:03:37.805Z,44.00
2019-05-09T20:06:03.846Z,44.20
2019-05-09T20:08:29.869Z,44.60
2019-05-09T20:11:10.104Z,44.70
2019-05-09T20:13:38.360Z,45.10
2019-05-09T20:16:04.395Z,45.90
2019-05-09T20:18:30.703Z,46.60
2019-05-09T20:20:56.726Z,47.50
2019-05-09T20:23:22.723Z,47.30
2019-05-09T20:25:49.104Z,47.40
2019-05-09T20:28:21.251Z,47.60
2019-05-09T20:30:47.273Z,47.90
2019-05-09T20:33:13.751Z,47.50
2019-05-09T20:35:39.826Z,47.00
2019-05-09T20:38:05.836Z,47.20
2019-05-09T20:40:32.067Z,46.90
2019-05-09T20:42:58.082Z,46.80
2019-05-09T20:45:24.386Z,47.10
2019-05-09T20:47:50.518Z,47.20
2019-05-09T20:50:16.589Z,47.30
2019-05-09T20:52:42.931Z,47.20
2019-05-09T20:55:08.962Z,47.40
2019-05-09T20:57:42.672Z,47.40
2019-05-09T21:00:08.771Z,47.70
2019-05-09T21:02:40.668Z,48.20
2019-05-09T21:05:12.259Z,48.00
2019-05-09T21:07:38.876Z,48.00
2019-05-09T21:10:20.164Z,47.90
2019-05-09T21:12:54.724Z,47.90
2019-05-09T21:15:24.926Z,47.90
2019-05-09T21:17:57.369Z,48.10
2019-05-09T21:20:23.388Z,48.30
2019-05-09T21:22:58.336Z,47.70
2019-05-09T21:28:23.413Z,47.80
2019-05-09T21:31:00.452Z,47.50
2019-05-09T21:33:46.244Z,47.70
2019-05-09T21:36:16.212Z,47.80
2019-05-09T21:38:42.208Z,47.60
2019-05-09T21:41:08.297Z,47.70
2019-05-09T21:43:42.870Z,47.70
2019-05-09T21:46:13.995Z,47.90
2019-05-09T21:48:42.907Z,48.10
2019-05-09T21:51:11.992Z,48.50
2019-05-09T21:53:40.736Z,48.50
2019-05-09T21:56:11.137Z,48.30
2019-05-09T21:58:37.175Z,48.10
2019-05-09T22:01:03.266Z,48.20
2019-05-09T22:03:31.470Z,48.10
2019-05-09T22:05:57.539Z,48.10
2019-05-09T22:08:23.563Z,48.40
2019-05-09T22:10:49.627Z,48.50
2019-05-09T22:13:15.955Z,48.60
2019-05-09T22:15:41.984Z,48.90
2019-05-09T22:18:08.031Z,48.80
2019-05-09T22:20:34.083Z,49.10
2019-05-09T22:23:00.165Z,49.10
2019-05-09T22:25:26.313Z,49.30
2019-05-09T22:27:52.424Z,49.70
2019-05-09T22:30:18.455Z,49.80
2019-05-09T22:32:48.357Z,49.90
2019-05-09T22:35:14.473Z,50.20
2019-05-09T22:37:40.491Z,50.20
2019-05-09T22:40:06.536Z,50.50
2019-05-09T22:42:32.551Z,50.70
2019-05-09T22:44:58.578Z,51.00
2019-05-09T22:47:24.631Z,51.30
2019-05-09T22:49:52.745Z,51.60
2019-05-09T22:52:18.935Z,51.60
2019-05-09T22:54:45.003Z,51.70
2019-05-09T22:57:11.005Z,51.60
2019-05-09T22:59:37.049Z,51.70
2019-05-09T23:02:06.691Z,51.60
2019-05-09T23:04:31.076Z,51.60
2019-05-09T23:06:57.357Z,51.60
2019-05-09T23:09:23.388Z,51.60
2019-05-09T23:11:49.735Z,51.60
2019-05-09T23:14:16.446Z,51.80
2019-05-09T23:16:42.475Z,51.50
2019-05-09T23:19:08.491Z,51.60
2019-05-09T23:21:34.623Z,51.80
2019-05-09T23:24:02.579Z,51.70
2019-05-09T23:26:28.580Z,51.50
2019-05-09T23:28:54.633Z,51.40
2019-05-09T23:31:22.650Z,51.50
2019-05-09T23:33:48.693Z,51.50
2019-05-09T23:36:14.710Z,51.60
2019-05-09T23:38:59.647Z,51.60
2019-05-09T23:41:25.673Z,51.90
2019-05-09T23:43:51.707Z,52.40
2019-05-09T23:46:18.111Z,53.00
2019-05-09T23:48:44.116Z,52.80
2019-05-09T23:51:10.184Z,53.00
2019-05-09T23:53:47.119Z,53.10
2019-05-09T23:56:22.987Z,53.20
2019-05-09T23:59:08.767Z,53.10
